sensor_id;sensor_type;location;lat;lon;timestamp;P1;durP1;ratioP1;P2;durP2;ratioP2
58784;SDS011;44557;51.862;19.378;2022-07-23T00:00:48;11.70;;;8.90;;
58784;SDS011;44557;51.862;19.378;2022-07-23T00:01:50;11.50;;;9.40;;
58784;SDS011;44557;51.862;19.378;2022-07-23T00:02:51;11.50;;;9.10;;
58784;SDS011;44557;51.862;19.378;2022-07-23T00:03:53;12.40;;;9.20;;
58784;SDS011;44557;51.862;19.378;2022-07-23T00:04:55;10.60;;;8.90;;
58784;SDS011;44557;51.862;19.378;2022-07-23T00:05:57;11.80;;;9.60;;
58784;SDS011;44557;51.862;19.378;2022-07-23T00:06:58;13.10;;;9.90;;
58784;SDS011;44557;51.862;19.378;2022-07-23T00:08:00;11.70;;;9.10;;
58784;SDS011;44557;51.862;19.378;2022-07-23T00:09:02;11.80;;;9.40;;
58784;SDS011;44557;51.862;19.378;2022-07-23T00:10:03;11.10;;;9.00;;
58784;SDS011;44557;51.862;19.378;2022-07-23T00:11:05;12.70;;;9.40;;
58784;SDS011;44557;51.862;19.378;2022-07-23T00:12:07;11.30;;;9.10;;
58784;SDS011;44557;51.862;19.378;2022-07-23T00:13:09;10.40;;;9.10;;
58784;SDS011;44557;51.862;19.378;2022-07-23T00:14:10;12.70;;;9.50;;
58784;SDS011;44557;51.862;19.378;2022-07-23T00:15:12;12.60;;;9.50;;
58784;SDS011;44557;51.862;19.378;2022-07-23T00:16:14;11.80;;;9.50;;
58784;SDS011;44557;51.862;19.378;2022-07-23T00:17:15;12.00;;;9.60;;
58784;SDS011;44557;51.862;19.378;2022-07-23T00:18:17;16.10;;;9.40;;
58784;SDS011;44557;51.862;19.378;2022-07-23T00:19:18;11.10;;;9.50;;
58784;SDS011;44557;51.862;19.378;2022-07-23T00:20:20;11.20;;;9.20;;
58784;SDS011;44557;51.862;19.378;2022-07-23T00:21:22;11.40;;;9.10;;
58784;SDS011;44557;51.862;19.378;2022-07-23T00:22:23;12.50;;;8.60;;
58784;SDS011;44557;51.862;19.378;2022-07-23T00:23:25;10.20;;;8.90;;
58784;SDS011;44557;51.862;19.378;2022-07-23T00:24:27;14.90;;;9.40;;
58784;SDS011;44557;51.862;19.378;2022-07-23T00:25:28;12.50;;;9.20;;
58784;SDS011;44557;51.862;19.378;2022-07-23T00:26:30;11.80;;;9.00;;
58784;SDS011;44557;51.862;19.378;2022-07-23T00:27:32;12.00;;;9.50;;
58784;SDS011;44557;51.862;19.378;2022-07-23T00:28:33;12.80;;;9.60;;
58784;SDS011;44557;51.862;19.378;2022-07-23T00:29:35;12.40;;;9.20;;
58784;SDS011;44557;51.862;19.378;2022-07-23T00:30:37;10.60;;;9.40;;
58784;SDS011;44557;51.862;19.378;2022-07-23T00:31:38;12.10;;;9.30;;
58784;SDS011;44557;51.862;19.378;2022-07-23T00:32:49;11.30;;;9.20;;
58784;SDS011;44557;51.862;19.378;2022-07-23T00:33:57;11.50;;;9.50;;
58784;SDS011;44557;51.862;19.378;2022-07-23T00:35:02;11.90;;;9.50;;
58784;SDS011;44557;51.862;19.378;2022-07-23T00:36:03;31.50;;;11.00;;
58784;SDS011;44557;51.862;19.378;2022-07-23T00:37:05;60.30;;;13.50;;
58784;SDS011;44557;51.862;19.378;2022-07-23T00:38:07;38.30;;;12.10;;
58784;SDS011;44557;51.862;19.378;2022-07-23T00:39:10;27.80;;;10.30;;
58784;SDS011;44557;51.862;19.378;2022-07-23T00:40:12;16.00;;;10.00;;
58784;SDS011;44557;51.862;19.378;2022-07-23T00:41:15;13.70;;;9.60;;
58784;SDS011;44557;51.862;19.378;2022-07-23T00:42:16;16.00;;;9.80;;
58784;SDS011;44557;51.862;19.378;2022-07-23T00:43:19;12.20;;;9.80;;
58784;SDS011;44557;51.862;19.378;2022-07-23T00:44:24;13.50;;;9.50;;
58784;SDS011;44557;51.862;19.378;2022-07-23T00:45:27;11.10;;;8.50;;
58784;SDS011;44557;51.862;19.378;2022-07-23T00:46:29;13.30;;;9.70;;
58784;SDS011;44557;51.862;19.378;2022-07-23T00:47:30;11.80;;;9.00;;
58784;SDS011;44557;51.862;19.378;2022-07-23T00:48:32;11.00;;;8.70;;
58784;SDS011;44557;51.862;19.378;2022-07-23T00:49:33;11.70;;;9.20;;
58784;SDS011;44557;51.862;19.378;2022-07-23T00:50:35;12.30;;;9.70;;
58784;SDS011;44557;51.862;19.378;2022-07-23T00:51:37;10.50;;;9.00;;
58784;SDS011;44557;51.862;19.378;2022-07-23T00:52:39;12.20;;;9.10;;
58784;SDS011;44557;51.862;19.378;2022-07-23T00:53:41;11.50;;;9.40;;
58784;SDS011;44557;51.862;19.378;2022-07-23T00:54:44;11.10;;;9.20;;
58784;SDS011;44557;51.862;19.378;2022-07-23T00:55:46;10.80;;;9.20;;
58784;SDS011;44557;51.862;19.378;2022-07-23T00:56:49;10.50;;;8.90;;
58784;SDS011;44557;51.862;19.378;2022-07-23T00:57:50;11.80;;;9.30;;
58784;SDS011;44557;51.862;19.378;2022-07-23T00:58:54;9.90;;;8.90;;
58784;SDS011;44557;51.862;19.378;2022-07-23T00:59:56;11.70;;;9.80;;
58784;SDS011;44557;51.862;19.378;2022-07-23T01:00:59;12.50;;;9.30;;
58784;SDS011;44557;51.862;19.378;2022-07-23T01:02:00;10.60;;;9.30;;
58784;SDS011;44557;51.862;19.378;2022-07-23T01:03:02;11.10;;;8.70;;
58784;SDS011;44557;51.862;19.378;2022-07-23T01:04:04;12.10;;;8.20;;
58784;SDS011;44557;51.862;19.378;2022-07-23T01:05:06;12.00;;;8.50;;
58784;SDS011;44557;51.862;19.378;2022-07-23T01:06:09;11.80;;;9.30;;
58784;SDS011;44557;51.862;19.378;2022-07-23T01:07:11;12.50;;;9.20;;
58784;SDS011;44557;51.862;19.378;2022-07-23T01:08:13;11.20;;;8.70;;
58784;SDS011;44557;51.862;19.378;2022-07-23T01:09:15;17.00;;;9.60;;
58784;SDS011;44557;51.862;19.378;2022-07-23T01:10:17;10.20;;;9.00;;
58784;SDS011;44557;51.862;19.378;2022-07-23T01:11:35;10.10;;;8.80;;
58784;SDS011;44557;51.862;19.378;2022-07-23T01:12:37;10.80;;;9.20;;
58784;SDS011;44557;51.862;19.378;2022-07-23T01:13:42;11.90;;;9.10;;
58784;SDS011;44557;51.862;19.378;2022-07-23T01:14:44;12.20;;;9.30;;
58784;SDS011;44557;51.862;19.378;2022-07-23T01:15:46;11.30;;;9.60;;
58784;SDS011;44557;51.862;19.378;2022-07-23T01:16:47;10.90;;;8.80;;
58784;SDS011;44557;51.862;19.378;2022-07-23T01:17:50;11.40;;;9.40;;
58784;SDS011;44557;51.862;19.378;2022-07-23T01:18:52;10.90;;;8.80;;
58784;SDS011;44557;51.862;19.378;2022-07-23T01:19:53;10.90;;;8.60;;
58784;SDS011;44557;51.862;19.378;2022-07-23T01:20:55;11.40;;;9.10;;
58784;SDS011;44557;51.862;19.378;2022-07-23T01:21:57;9.80;;;8.70;;
58784;SDS011;44557;51.862;19.378;2022-07-23T01:23:02;11.80;;;9.00;;
58784;SDS011;44557;51.862;19.378;2022-07-23T01:24:04;12.00;;;8.90;;
58784;SDS011;44557;51.862;19.378;2022-07-23T01:25:07;11.00;;;8.30;;
58784;SDS011;44557;51.862;19.378;2022-07-23T01:26:09;11.30;;;9.00;;
58784;SDS011;44557;51.862;19.378;2022-07-23T01:27:11;10.30;;;9.10;;
58784;SDS011;44557;51.862;19.378;2022-07-23T01:28:13;12.10;;;8.80;;
58784;SDS011;44557;51.862;19.378;2022-07-23T01:29:15;10.50;;;8.70;;
58784;SDS011;44557;51.862;19.378;2022-07-23T01:30:18;10.50;;;8.90;;
58784;SDS011;44557;51.862;19.378;2022-07-23T01:31:20;11.10;;;8.80;;
58784;SDS011;44557;51.862;19.378;2022-07-23T01:32:22;11.40;;;8.40;;
58784;SDS011;44557;51.862;19.378;2022-07-23T01:33:23;11.50;;;9.70;;
58784;SDS011;44557;51.862;19.378;2022-07-23T01:34:25;10.60;;;8.80;;
58784;SDS011;44557;51.862;19.378;2022-07-23T01:35:27;11.30;;;9.20;;
58784;SDS011;44557;51.862;19.378;2022-07-23T01:36:29;12.90;;;8.70;;
58784;SDS011;44557;51.862;19.378;2022-07-23T01:37:30;13.20;;;9.20;;
58784;SDS011;44557;51.862;19.378;2022-07-23T01:38:32;12.70;;;8.40;;
58784;SDS011;44557;51.862;19.378;2022-07-23T01:39:33;13.30;;;9.10;;
58784;SDS011;44557;51.862;19.378;2022-07-23T01:40:35;10.60;;;9.50;;
58784;SDS011;44557;51.862;19.378;2022-07-23T01:41:36;11.40;;;9.30;;
58784;SDS011;44557;51.862;19.378;2022-07-23T01:42:38;11.90;;;8.70;;
58784;SDS011;44557;51.862;19.378;2022-07-23T01:43:39;10.00;;;8.80;;
58784;SDS011;44557;51.862;19.378;2022-07-23T01:44:41;10.20;;;9.00;;
58784;SDS011;44557;51.862;19.378;2022-07-23T01:45:42;11.30;;;8.90;;
58784;SDS011;44557;51.862;19.378;2022-07-23T01:46:45;12.80;;;8.60;;
58784;SDS011;44557;51.862;19.378;2022-07-23T01:47:47;11.40;;;9.50;;
58784;SDS011;44557;51.862;19.378;2022-07-23T01:48:49;12.20;;;9.60;;
58784;SDS011;44557;51.862;19.378;2022-07-23T01:49:51;11.80;;;9.50;;
58784;SDS011;44557;51.862;19.378;2022-07-23T01:50:53;12.10;;;9.50;;
58784;SDS011;44557;51.862;19.378;2022-07-23T01:51:54;11.20;;;9.30;;
58784;SDS011;44557;51.862;19.378;2022-07-23T01:53:02;12.20;;;10.20;;
58784;SDS011;44557;51.862;19.378;2022-07-23T01:54:03;14.60;;;8.60;;
58784;SDS011;44557;51.862;19.378;2022-07-23T01:55:05;12.40;;;9.70;;
58784;SDS011;44557;51.862;19.378;2022-07-23T01:56:09;13.60;;;10.00;;
58784;SDS011;44557;51.862;19.378;2022-07-23T01:57:10;10.80;;;9.40;;
58784;SDS011;44557;51.862;19.378;2022-07-23T01:58:12;10.20;;;9.10;;
58784;SDS011;44557;51.862;19.378;2022-07-23T01:59:13;12.00;;;9.00;;
58784;SDS011;44557;51.862;19.378;2022-07-23T02:00:15;11.10;;;9.10;;
58784;SDS011;44557;51.862;19.378;2022-07-23T02:01:17;11.50;;;9.20;;
58784;SDS011;44557;51.862;19.378;2022-07-23T02:02:19;10.40;;;9.30;;
58784;SDS011;44557;51.862;19.378;2022-07-23T02:03:21;11.30;;;9.70;;
58784;SDS011;44557;51.862;19.378;2022-07-23T02:04:23;12.40;;;9.20;;
58784;SDS011;44557;51.862;19.378;2022-07-23T02:05:26;12.30;;;9.90;;
58784;SDS011;44557;51.862;19.378;2022-07-23T02:06:29;13.50;;;9.70;;
58784;SDS011;44557;51.862;19.378;2022-07-23T02:07:31;10.90;;;9.20;;
58784;SDS011;44557;51.862;19.378;2022-07-23T02:08:33;12.90;;;9.50;;
58784;SDS011;44557;51.862;19.378;2022-07-23T02:09:34;12.40;;;9.40;;
58784;SDS011;44557;51.862;19.378;2022-07-23T02:10:36;13.50;;;9.70;;
58784;SDS011;44557;51.862;19.378;2022-07-23T02:11:37;12.70;;;9.30;;
58784;SDS011;44557;51.862;19.378;2022-07-23T02:12:39;12.10;;;9.60;;
58784;SDS011;44557;51.862;19.378;2022-07-23T02:13:40;10.80;;;8.80;;
58784;SDS011;44557;51.862;19.378;2022-07-23T02:14:42;12.70;;;9.60;;
58784;SDS011;44557;51.862;19.378;2022-07-23T02:15:44;11.90;;;9.30;;
58784;SDS011;44557;51.862;19.378;2022-07-23T02:16:46;10.60;;;9.50;;
58784;SDS011;44557;51.862;19.378;2022-07-23T02:17:48;12.20;;;9.70;;
58784;SDS011;44557;51.862;19.378;2022-07-23T02:18:49;10.60;;;9.40;;
58784;SDS011;44557;51.862;19.378;2022-07-23T02:19:51;11.90;;;10.30;;
58784;SDS011;44557;51.862;19.378;2022-07-23T02:20:53;11.60;;;10.40;;
58784;SDS011;44557;51.862;19.378;2022-07-23T02:21:54;13.20;;;10.50;;
58784;SDS011;44557;51.862;19.378;2022-07-23T02:22:56;13.00;;;10.00;;
58784;SDS011;44557;51.862;19.378;2022-07-23T02:23:57;11.20;;;10.00;;
58784;SDS011;44557;51.862;19.378;2022-07-23T02:24:59;10.80;;;9.30;;
58784;SDS011;44557;51.862;19.378;2022-07-23T02:26:00;15.60;;;9.50;;
58784;SDS011;44557;51.862;19.378;2022-07-23T02:27:02;13.10;;;9.90;;
58784;SDS011;44557;51.862;19.378;2022-07-23T02:28:03;12.00;;;10.10;;
58784;SDS011;44557;51.862;19.378;2022-07-23T02:29:05;14.50;;;10.00;;
58784;SDS011;44557;51.862;19.378;2022-07-23T02:30:07;12.00;;;10.40;;
58784;SDS011;44557;51.862;19.378;2022-07-23T02:31:09;11.00;;;9.90;;
58784;SDS011;44557;51.862;19.378;2022-07-23T02:32:11;11.10;;;9.90;;
58784;SDS011;44557;51.862;19.378;2022-07-23T02:33:12;11.40;;;9.30;;
58784;SDS011;44557;51.862;19.378;2022-07-23T02:34:14;12.30;;;9.50;;
58784;SDS011;44557;51.862;19.378;2022-07-23T02:35:15;12.70;;;9.20;;
58784;SDS011;44557;51.862;19.378;2022-07-23T02:36:17;11.60;;;9.50;;
58784;SDS011;44557;51.862;19.378;2022-07-23T02:37:18;11.60;;;10.00;;
58784;SDS011;44557;51.862;19.378;2022-07-23T02:38:20;11.60;;;9.60;;
58784;SDS011;44557;51.862;19.378;2022-07-23T02:39:21;13.90;;;10.30;;
58784;SDS011;44557;51.862;19.378;2022-07-23T02:40:23;12.50;;;9.30;;
58784;SDS011;44557;51.862;19.378;2022-07-23T02:41:24;13.30;;;10.20;;
58784;SDS011;44557;51.862;19.378;2022-07-23T02:42:26;11.20;;;9.50;;
58784;SDS011;44557;51.862;19.378;2022-07-23T02:43:27;11.40;;;10.10;;
58784;SDS011;44557;51.862;19.378;2022-07-23T02:44:29;10.50;;;9.40;;
58784;SDS011;44557;51.862;19.378;2022-07-23T02:45:30;10.70;;;9.00;;
58784;SDS011;44557;51.862;19.378;2022-07-23T02:46:32;12.40;;;9.40;;
58784;SDS011;44557;51.862;19.378;2022-07-23T02:47:34;11.50;;;9.40;;
58784;SDS011;44557;51.862;19.378;2022-07-23T02:48:35;11.50;;;9.70;;
58784;SDS011;44557;51.862;19.378;2022-07-23T02:49:37;11.00;;;9.70;;
58784;SDS011;44557;51.862;19.378;2022-07-23T02:50:38;11.00;;;9.60;;
58784;SDS011;44557;51.862;19.378;2022-07-23T02:51:40;10.70;;;9.40;;
58784;SDS011;44557;51.862;19.378;2022-07-23T02:52:41;11.20;;;8.90;;
58784;SDS011;44557;51.862;19.378;2022-07-23T02:53:43;10.80;;;9.20;;
58784;SDS011;44557;51.862;19.378;2022-07-23T02:54:44;10.80;;;8.50;;
58784;SDS011;44557;51.862;19.378;2022-07-23T02:55:46;11.10;;;9.40;;
58784;SDS011;44557;51.862;19.378;2022-07-23T02:56:47;11.70;;;9.20;;
58784;SDS011;44557;51.862;19.378;2022-07-23T02:57:49;11.00;;;9.30;;
58784;SDS011;44557;51.862;19.378;2022-07-23T02:58:50;12.30;;;9.30;;
58784;SDS011;44557;51.862;19.378;2022-07-23T02:59:52;10.30;;;8.70;;
58784;SDS011;44557;51.862;19.378;2022-07-23T03:00:53;11.20;;;9.10;;
58784;SDS011;44557;51.862;19.378;2022-07-23T03:01:55;12.60;;;9.60;;
58784;SDS011;44557;51.862;19.378;2022-07-23T03:02:56;11.30;;;9.30;;
58784;SDS011;44557;51.862;19.378;2022-07-23T03:03:58;10.50;;;9.40;;
58784;SDS011;44557;51.862;19.378;2022-07-23T03:04:59;11.10;;;9.80;;
58784;SDS011;44557;51.862;19.378;2022-07-23T03:06:01;10.40;;;9.30;;
58784;SDS011;44557;51.862;19.378;2022-07-23T03:07:02;11.70;;;9.50;;
58784;SDS011;44557;51.862;19.378;2022-07-23T03:08:04;10.70;;;9.60;;
58784;SDS011;44557;51.862;19.378;2022-07-23T03:09:06;12.20;;;10.00;;
58784;SDS011;44557;51.862;19.378;2022-07-23T03:10:07;11.50;;;8.80;;
58784;SDS011;44557;51.862;19.378;2022-07-23T03:11:09;12.10;;;9.00;;
58784;SDS011;44557;51.862;19.378;2022-07-23T03:12:14;12.60;;;9.30;;
58784;SDS011;44557;51.862;19.378;2022-07-23T03:13:16;10.60;;;8.80;;
58784;SDS011;44557;51.862;19.378;2022-07-23T03:14:17;12.10;;;9.60;;
58784;SDS011;44557;51.862;19.378;2022-07-23T03:15:19;10.50;;;9.30;;
58784;SDS011;44557;51.862;19.378;2022-07-23T03:16:21;11.60;;;9.40;;
58784;SDS011;44557;51.862;19.378;2022-07-23T03:17:22;10.60;;;9.50;;
58784;SDS011;44557;51.862;19.378;2022-07-23T03:18:25;11.20;;;8.90;;
58784;SDS011;44557;51.862;19.378;2022-07-23T03:19:26;11.40;;;9.20;;
58784;SDS011;44557;51.862;19.378;2022-07-23T03:20:28;11.60;;;8.90;;
58784;SDS011;44557;51.862;19.378;2022-07-23T03:21:29;11.80;;;9.60;;
58784;SDS011;44557;51.862;19.378;2022-07-23T03:22:31;13.20;;;10.60;;
58784;SDS011;44557;51.862;19.378;2022-07-23T03:23:33;11.50;;;10.30;;
58784;SDS011;44557;51.862;19.378;2022-07-23T03:24:35;12.70;;;10.40;;
58784;SDS011;44557;51.862;19.378;2022-07-23T03:25:55;12.80;;;9.70;;
58784;SDS011;44557;51.862;19.378;2022-07-23T03:26:56;11.40;;;9.70;;
58784;SDS011;44557;51.862;19.378;2022-07-23T03:27:58;11.20;;;9.90;;
58784;SDS011;44557;51.862;19.378;2022-07-23T03:28:59;13.80;;;10.00;;
58784;SDS011;44557;51.862;19.378;2022-07-23T03:30:02;11.40;;;9.70;;
58784;SDS011;44557;51.862;19.378;2022-07-23T03:31:04;11.50;;;9.50;;
58784;SDS011;44557;51.862;19.378;2022-07-23T03:32:06;11.60;;;9.70;;
58784;SDS011;44557;51.862;19.378;2022-07-23T03:33:09;12.20;;;9.70;;
58784;SDS011;44557;51.862;19.378;2022-07-23T03:34:10;11.40;;;9.70;;
58784;SDS011;44557;51.862;19.378;2022-07-23T03:35:12;13.50;;;10.10;;
58784;SDS011;44557;51.862;19.378;2022-07-23T03:36:13;10.80;;;9.70;;
58784;SDS011;44557;51.862;19.378;2022-07-23T03:37:15;12.40;;;10.00;;
58784;SDS011;44557;51.862;19.378;2022-07-23T03:38:17;12.60;;;10.20;;
58784;SDS011;44557;51.862;19.378;2022-07-23T03:39:18;13.60;;;10.50;;
58784;SDS011;44557;51.862;19.378;2022-07-23T03:40:20;13.30;;;11.50;;
58784;SDS011;44557;51.862;19.378;2022-07-23T03:41:21;12.00;;;10.50;;
58784;SDS011;44557;51.862;19.378;2022-07-23T03:42:23;14.10;;;11.10;;
58784;SDS011;44557;51.862;19.378;2022-07-23T03:43:24;13.10;;;10.90;;
58784;SDS011;44557;51.862;19.378;2022-07-23T03:44:27;11.80;;;10.40;;
58784;SDS011;44557;51.862;19.378;2022-07-23T03:45:28;12.00;;;9.50;;
58784;SDS011;44557;51.862;19.378;2022-07-23T03:46:31;10.70;;;9.50;;
58784;SDS011;44557;51.862;19.378;2022-07-23T03:47:33;13.50;;;9.80;;
58784;SDS011;44557;51.862;19.378;2022-07-23T03:48:34;12.60;;;10.70;;
58784;SDS011;44557;51.862;19.378;2022-07-23T03:49:36;12.50;;;10.30;;
58784;SDS011;44557;51.862;19.378;2022-07-23T03:50:38;13.70;;;11.40;;
58784;SDS011;44557;51.862;19.378;2022-07-23T03:51:39;14.30;;;11.40;;
58784;SDS011;44557;51.862;19.378;2022-07-23T03:52:41;12.70;;;10.70;;
58784;SDS011;44557;51.862;19.378;2022-07-23T03:53:42;13.10;;;11.10;;
58784;SDS011;44557;51.862;19.378;2022-07-23T03:54:44;12.20;;;9.50;;
58784;SDS011;44557;51.862;19.378;2022-07-23T03:55:45;11.40;;;9.80;;
58784;SDS011;44557;51.862;19.378;2022-07-23T03:56:47;12.50;;;10.20;;
58784;SDS011;44557;51.862;19.378;2022-07-23T03:57:48;12.60;;;10.10;;
58784;SDS011;44557;51.862;19.378;2022-07-23T03:58:50;12.90;;;10.70;;
58784;SDS011;44557;51.862;19.378;2022-07-23T03:59:51;13.00;;;10.00;;
58784;SDS011;44557;51.862;19.378;2022-07-23T04:00:53;12.60;;;10.70;;
58784;SDS011;44557;51.862;19.378;2022-07-23T04:01:54;13.50;;;10.90;;
58784;SDS011;44557;51.862;19.378;2022-07-23T04:02:56;16.40;;;11.80;;
58784;SDS011;44557;51.862;19.378;2022-07-23T04:03:57;13.90;;;11.90;;
58784;SDS011;44557;51.862;19.378;2022-07-23T04:04:59;15.00;;;11.50;;
58784;SDS011;44557;51.862;19.378;2022-07-23T04:06:02;14.90;;;11.50;;
58784;SDS011;44557;51.862;19.378;2022-07-23T04:07:03;12.00;;;10.70;;
58784;SDS011;44557;51.862;19.378;2022-07-23T04:08:05;12.10;;;10.80;;
58784;SDS011;44557;51.862;19.378;2022-07-23T04:09:06;13.70;;;10.30;;
58784;SDS011;44557;51.862;19.378;2022-07-23T04:10:08;11.80;;;9.80;;
58784;SDS011;44557;51.862;19.378;2022-07-23T04:11:10;12.00;;;10.40;;
58784;SDS011;44557;51.862;19.378;2022-07-23T04:12:11;14.30;;;10.40;;
58784;SDS011;44557;51.862;19.378;2022-07-23T04:13:13;13.40;;;11.80;;
58784;SDS011;44557;51.862;19.378;2022-07-23T04:14:15;13.20;;;10.90;;
58784;SDS011;44557;51.862;19.378;2022-07-23T04:15:16;11.80;;;10.50;;
58784;SDS011;44557;51.862;19.378;2022-07-23T04:16:18;13.10;;;9.80;;
58784;SDS011;44557;51.862;19.378;2022-07-23T04:17:19;12.60;;;9.80;;
58784;SDS011;44557;51.862;19.378;2022-07-23T04:18:21;12.70;;;9.90;;
58784;SDS011;44557;51.862;19.378;2022-07-23T04:19:25;12.60;;;10.30;;
58784;SDS011;44557;51.862;19.378;2022-07-23T04:20:27;12.80;;;9.50;;
58784;SDS011;44557;51.862;19.378;2022-07-23T04:21:28;12.60;;;9.80;;
58784;SDS011;44557;51.862;19.378;2022-07-23T04:22:30;14.30;;;10.50;;
58784;SDS011;44557;51.862;19.378;2022-07-23T04:23:31;15.30;;;10.40;;
58784;SDS011;44557;51.862;19.378;2022-07-23T04:24:33;13.80;;;10.10;;
58784;SDS011;44557;51.862;19.378;2022-07-23T04:25:35;12.40;;;10.30;;
58784;SDS011;44557;51.862;19.378;2022-07-23T04:26:37;11.30;;;9.90;;
58784;SDS011;44557;51.862;19.378;2022-07-23T04:27:38;12.80;;;10.30;;
58784;SDS011;44557;51.862;19.378;2022-07-23T04:28:40;14.80;;;10.40;;
58784;SDS011;44557;51.862;19.378;2022-07-23T04:29:42;12.30;;;10.00;;
58784;SDS011;44557;51.862;19.378;2022-07-23T04:30:44;11.80;;;10.50;;
58784;SDS011;44557;51.862;19.378;2022-07-23T04:31:46;13.50;;;10.50;;
58784;SDS011;44557;51.862;19.378;2022-07-23T04:32:47;14.20;;;11.20;;
58784;SDS011;44557;51.862;19.378;2022-07-23T04:33:49;12.50;;;10.10;;
58784;SDS011;44557;51.862;19.378;2022-07-23T04:34:50;20.20;;;10.90;;
58784;SDS011;44557;51.862;19.378;2022-07-23T04:35:52;13.40;;;10.20;;
58784;SDS011;44557;51.862;19.378;2022-07-23T04:36:53;14.80;;;10.90;;
58784;SDS011;44557;51.862;19.378;2022-07-23T04:37:55;13.30;;;10.10;;
58784;SDS011;44557;51.862;19.378;2022-07-23T04:38:58;14.70;;;10.90;;
58784;SDS011;44557;51.862;19.378;2022-07-23T04:39:59;12.80;;;10.70;;
58784;SDS011;44557;51.862;19.378;2022-07-23T04:41:01;14.30;;;10.10;;
58784;SDS011;44557;51.862;19.378;2022-07-23T04:42:03;14.00;;;10.00;;
58784;SDS011;44557;51.862;19.378;2022-07-23T04:43:05;19.00;;;10.50;;
58784;SDS011;44557;51.862;19.378;2022-07-23T04:44:06;15.70;;;10.40;;
58784;SDS011;44557;51.862;19.378;2022-07-23T04:45:08;16.30;;;10.10;;
58784;SDS011;44557;51.862;19.378;2022-07-23T04:46:10;19.60;;;10.30;;
58784;SDS011;44557;51.862;19.378;2022-07-23T04:47:11;15.10;;;10.40;;
58784;SDS011;44557;51.862;19.378;2022-07-23T04:48:13;16.20;;;10.90;;
58784;SDS011;44557;51.862;19.378;2022-07-23T04:49:15;18.70;;;10.50;;
58784;SDS011;44557;51.862;19.378;2022-07-23T04:50:16;17.00;;;10.40;;
58784;SDS011;44557;51.862;19.378;2022-07-23T04:51:19;17.80;;;10.30;;
58784;SDS011;44557;51.862;19.378;2022-07-23T04:52:22;16.00;;;10.40;;
58784;SDS011;44557;51.862;19.378;2022-07-23T04:53:24;14.30;;;10.60;;
58784;SDS011;44557;51.862;19.378;2022-07-23T04:54:26;15.80;;;10.80;;
58784;SDS011;44557;51.862;19.378;2022-07-23T04:55:27;14.90;;;10.90;;
58784;SDS011;44557;51.862;19.378;2022-07-23T04:56:29;14.00;;;10.50;;
58784;SDS011;44557;51.862;19.378;2022-07-23T04:57:30;13.70;;;10.50;;
58784;SDS011;44557;51.862;19.378;2022-07-23T04:58:32;15.10;;;10.10;;
58784;SDS011;44557;51.862;19.378;2022-07-23T04:59:33;12.80;;;10.40;;
58784;SDS011;44557;51.862;19.378;2022-07-23T05:00:35;12.80;;;10.80;;
58784;SDS011;44557;51.862;19.378;2022-07-23T05:01:37;14.00;;;10.50;;
58784;SDS011;44557;51.862;19.378;2022-07-23T05:02:38;12.70;;;10.70;;
58784;SDS011;44557;51.862;19.378;2022-07-23T05:03:40;12.70;;;11.10;;
58784;SDS011;44557;51.862;19.378;2022-07-23T05:04:41;12.60;;;10.20;;
58784;SDS011;44557;51.862;19.378;2022-07-23T05:05:43;12.30;;;10.70;;
58784;SDS011;44557;51.862;19.378;2022-07-23T05:06:44;14.10;;;10.40;;
58784;SDS011;44557;51.862;19.378;2022-07-23T05:07:46;12.20;;;10.70;;
58784;SDS011;44557;51.862;19.378;2022-07-23T05:08:47;12.30;;;10.20;;
58784;SDS011;44557;51.862;19.378;2022-07-23T05:09:49;13.50;;;10.20;;
58784;SDS011;44557;51.862;19.378;2022-07-23T05:10:50;14.20;;;10.10;;
58784;SDS011;44557;51.862;19.378;2022-07-23T05:11:52;13.10;;;9.70;;
58784;SDS011;44557;51.862;19.378;2022-07-23T05:12:53;12.00;;;10.30;;
58784;SDS011;44557;51.862;19.378;2022-07-23T05:13:55;11.20;;;9.80;;
58784;SDS011;44557;51.862;19.378;2022-07-23T05:14:56;11.60;;;10.40;;
58784;SDS011;44557;51.862;19.378;2022-07-23T05:15:58;11.70;;;9.50;;
58784;SDS011;44557;51.862;19.378;2022-07-23T05:17:00;12.20;;;8.80;;
58784;SDS011;44557;51.862;19.378;2022-07-23T05:18:01;10.60;;;9.00;;
58784;SDS011;44557;51.862;19.378;2022-07-23T05:19:03;14.30;;;9.20;;
58784;SDS011;44557;51.862;19.378;2022-07-23T05:20:04;10.10;;;8.50;;
58784;SDS011;44557;51.862;19.378;2022-07-23T05:21:06;13.50;;;9.30;;
58784;SDS011;44557;51.862;19.378;2022-07-23T05:22:08;11.20;;;9.20;;
58784;SDS011;44557;51.862;19.378;2022-07-23T05:23:09;11.60;;;9.00;;
58784;SDS011;44557;51.862;19.378;2022-07-23T05:24:11;13.70;;;9.00;;
58784;SDS011;44557;51.862;19.378;2022-07-23T05:25:12;13.80;;;9.10;;
58784;SDS011;44557;51.862;19.378;2022-07-23T05:26:14;10.10;;;9.10;;
58784;SDS011;44557;51.862;19.378;2022-07-23T05:27:15;12.40;;;9.20;;
58784;SDS011;44557;51.862;19.378;2022-07-23T05:28:17;10.30;;;8.70;;
58784;SDS011;44557;51.862;19.378;2022-07-23T05:29:18;11.10;;;8.30;;
58784;SDS011;44557;51.862;19.378;2022-07-23T05:30:20;10.60;;;8.10;;
58784;SDS011;44557;51.862;19.378;2022-07-23T05:31:22;11.40;;;8.40;;
58784;SDS011;44557;51.862;19.378;2022-07-23T05:32:23;10.00;;;7.60;;
58784;SDS011;44557;51.862;19.378;2022-07-23T05:33:25;10.50;;;8.40;;
58784;SDS011;44557;51.862;19.378;2022-07-23T05:34:26;10.10;;;8.00;;
58784;SDS011;44557;51.862;19.378;2022-07-23T05:35:28;9.80;;;7.60;;
58784;SDS011;44557;51.862;19.378;2022-07-23T05:36:30;10.30;;;7.40;;
58784;SDS011;44557;51.862;19.378;2022-07-23T05:37:32;9.90;;;7.80;;
58784;SDS011;44557;51.862;19.378;2022-07-23T05:38:34;9.50;;;7.40;;
58784;SDS011;44557;51.862;19.378;2022-07-23T05:39:36;9.70;;;7.40;;
58784;SDS011;44557;51.862;19.378;2022-07-23T05:40:37;9.80;;;7.70;;
58784;SDS011;44557;51.862;19.378;2022-07-23T05:41:39;9.10;;;7.30;;
58784;SDS011;44557;51.862;19.378;2022-07-23T05:42:41;10.60;;;7.90;;
58784;SDS011;44557;51.862;19.378;2022-07-23T05:43:43;9.20;;;7.20;;
58784;SDS011;44557;51.862;19.378;2022-07-23T05:44:45;8.50;;;7.10;;
58784;SDS011;44557;51.862;19.378;2022-07-23T05:45:46;11.00;;;7.50;;
58784;SDS011;44557;51.862;19.378;2022-07-23T05:46:48;8.60;;;6.60;;
58784;SDS011;44557;51.862;19.378;2022-07-23T05:47:49;9.90;;;7.00;;
58784;SDS011;44557;51.862;19.378;2022-07-23T05:48:51;8.80;;;6.60;;
58784;SDS011;44557;51.862;19.378;2022-07-23T05:49:53;9.10;;;7.60;;
58784;SDS011;44557;51.862;19.378;2022-07-23T05:50:54;8.70;;;7.10;;
58784;SDS011;44557;51.862;19.378;2022-07-23T05:51:56;10.40;;;7.40;;
58784;SDS011;44557;51.862;19.378;2022-07-23T05:52:57;8.20;;;6.70;;
58784;SDS011;44557;51.862;19.378;2022-07-23T05:53:59;9.80;;;6.60;;
58784;SDS011;44557;51.862;19.378;2022-07-23T05:55:00;10.50;;;6.70;;
58784;SDS011;44557;51.862;19.378;2022-07-23T05:56:02;10.60;;;6.80;;
58784;SDS011;44557;51.862;19.378;2022-07-23T05:57:03;9.60;;;7.10;;
58784;SDS011;44557;51.862;19.378;2022-07-23T05:58:05;11.00;;;6.50;;
58784;SDS011;44557;51.862;19.378;2022-07-23T05:59:06;8.60;;;5.90;;
58784;SDS011;44557;51.862;19.378;2022-07-23T06:00:08;8.10;;;6.20;;
58784;SDS011;44557;51.862;19.378;2022-07-23T06:01:11;7.80;;;6.40;;